Time;durP1;ratioP1;P1;durP2;ratioP2;P2;SDS_P1;SDS_P2;PMS_P1;PMS_P2;Temp;Humidity;BMP_temperature;BMP_pressure;BME280_temperature;BME280_humidity;BME280_pressure;Samples;Min_cycle;Max_cycle;Signal;HPM_P1;HPM_P2
2022/11/13 00:01:51;;;;;;;21.65;17.70;;;12.50;99.90;;;;;;5044745;28;20064;-62
2022/11/13 00:04:36;;;;;;;21.20;16.70;;;12.50;99.90;;;;;;5046073;28;20048;-61
2022/11/13 00:07:21;;;;;;;21.85;16.80;;;12.50;99.90;;;;;;5044659;28;20118;-63
2022/11/13 00:10:07;;;;;;;24.60;17.73;;;12.50;99.90;;;;;;5049795;28;20071;-62
2022/11/13 00:12:53;;;;;;;24.33;17.98;;;12.50;99.90;;;;;;5046214;28;20130;-62
2022/11/13 00:15:38;;;;;;;23.98;17.15;;;12.50;99.90;;;;;;5045996;28;20049;-63
2022/11/13 00:18:23;;;;;;;22.67;17.15;;;12.50;99.90;;;;;;5046826;28;20064;-62
2022/11/13 00:21:09;;;;;;;20.00;16.75;;;12.50;99.90;;;;;;5046343;28;20501;-63
2022/11/13 00:23:54;;;;;;;19.88;16.10;;;12.50;99.90;;;;;;5043276;28;20056;-63
2022/11/13 00:26:39;;;;;;;18.17;16.20;;;12.50;99.90;;;;;;5035722;28;20071;-61
2022/11/13 00:29:24;;;;;;;20.63;16.37;;;12.50;99.90;;;;;;5034995;28;20224;-62
2022/11/13 00:32:09;;;;;;;19.80;16.90;;;12.50;99.90;;;;;;5038473;28;20203;-62
2022/11/13 00:34:54;;;;;;;23.30;17.92;;;12.50;99.90;;;;;;5055527;28;20265;-63
2022/11/13 00:37:39;;;;;;;19.27;15.52;;;12.50;99.90;;;;;;5046811;28;20405;-63
2022/11/13 00:40:24;;;;;;;22.30;16.97;;;12.60;99.90;;;;;;5035890;28;20496;-64
2022/11/13 00:43:09;;;;;;;24.63;16.45;;;12.60;99.90;;;;;;5035980;28;20057;-62
2022/11/13 00:45:54;;;;;;;18.48;14.93;;;12.50;99.90;;;;;;5035497;28;20528;-64
2022/11/13 00:48:39;;;;;;;21.63;15.53;;;12.60;99.90;;;;;;5038456;28;20076;-62
2022/11/13 00:51:24;;;;;;;17.90;14.80;;;12.60;99.90;;;;;;5055046;28;20131;-63
2022/11/13 00:54:09;;;;;;;18.53;14.80;;;12.60;99.90;;;;;;5045219;28;20064;-63
2022/11/13 00:56:55;;;;;;;20.08;15.40;;;12.60;99.90;;;;;;5035888;28;20270;-64
2022/11/13 00:59:40;;;;;;;20.02;15.00;;;12.60;99.90;;;;;;5035871;28;20084;-63
2022/11/13 01:02:25;;;;;;;18.95;16.48;;;12.60;99.90;;;;;;5035392;28;20079;-62
2022/11/13 01:05:10;;;;;;;20.63;15.88;;;12.60;99.90;;;;;;5035449;28;20140;-62
2022/11/13 01:07:56;;;;;;;17.48;15.65;;;12.60;99.90;;;;;;5035321;28;20056;-64
2022/11/13 01:10:41;;;;;;;25.30;17.08;;;12.60;99.90;;;;;;5035494;28;20067;-64
2022/11/13 01:13:26;;;;;;;20.13;16.93;;;12.60;99.90;;;;;;5036470;28;20076;-63
2022/11/13 01:16:11;;;;;;;21.92;16.17;;;12.60;99.90;;;;;;5035057;28;20057;-63
2022/11/13 01:18:56;;;;;;;20.13;15.67;;;12.60;99.90;;;;;;5035002;28;20380;-63
2022/11/13 01:21:41;;;;;;;18.55;15.38;;;12.60;99.90;;;;;;5034772;28;20511;-63
2022/11/13 01:24:26;;;;;;;18.70;15.55;;;12.60;99.90;;;;;;5034917;28;20163;-63
2022/11/13 01:27:12;;;;;;;20.98;16.45;;;12.60;99.90;;;;;;5035524;28;20076;-62
2022/11/13 01:29:57;;;;;;;19.60;15.77;;;12.60;99.90;;;;;;5034937;28;20068;-62
2022/11/13 01:32:42;;;;;;;18.97;15.87;;;12.70;99.90;;;;;;5042620;28;20068;-62
2022/11/13 01:35:27;;;;;;;17.13;15.00;;;12.60;99.90;;;;;;5054445;28;20256;-65
2022/11/13 01:38:12;;;;;;;20.10;16.38;;;12.70;99.90;;;;;;5054116;28;20059;-63
2022/11/13 01:40:57;;;;;;;20.55;16.13;;;12.60;99.90;;;;;;5055174;28;20174;-62
2022/11/13 01:43:42;;;;;;;20.00;16.45;;;12.70;99.90;;;;;;5053282;28;20056;-64
2022/11/13 01:46:28;;;;;;;20.15;16.45;;;12.70;99.90;;;;;;5053774;28;20102;-63
2022/11/13 01:49:13;;;;;;;18.98;15.73;;;12.70;99.90;;;;;;5054913;28;20130;-62
2022/11/13 01:51:58;;;;;;;21.00;16.92;;;12.70;99.90;;;;;;5054225;28;20051;-63
2022/11/13 01:54:43;;;;;;;17.58;14.50;;;12.70;99.90;;;;;;5054578;28;20154;-62
2022/11/13 01:57:28;;;;;;;19.83;15.20;;;12.70;99.90;;;;;;5054251;28;20047;-61
2022/11/13 02:00:14;;;;;;;19.02;15.15;;;12.70;99.90;;;;;;5054396;28;20258;-63
2022/11/13 02:02:59;;;;;;;17.85;14.15;;;12.60;99.90;;;;;;5053286;28;20519;-63
2022/11/13 02:05:44;;;;;;;18.45;14.48;;;12.60;99.90;;;;;;5052621;28;20071;-62
2022/11/13 02:08:29;;;;;;;19.05;14.65;;;12.60;99.90;;;;;;5034673;28;20103;-63
2022/11/13 02:11:15;;;;;;;17.83;14.52;;;12.60;99.90;;;;;;5034314;28;20060;-63
2022/11/13 02:14:00;;;;;;;18.30;14.15;;;12.60;99.90;;;;;;5033948;28;20059;-61
2022/11/13 02:16:45;;;;;;;20.33;15.32;;;12.60;99.90;;;;;;5033964;28;20096;-61
2022/11/13 02:19:30;;;;;;;17.42;15.00;;;12.60;99.90;;;;;;5034046;28;20107;-62
2022/11/13 02:22:16;;;;;;;17.65;14.15;;;12.60;99.90;;;;;;5049164;28;20060;-64
2022/11/13 02:25:01;;;;;;;15.95;13.90;;;12.50;99.90;;;;;;5053860;28;20586;-63
2022/11/13 02:27:46;;;;;;;20.75;14.40;;;12.50;99.90;;;;;;5054259;28;20083;-62
2022/11/13 02:30:31;;;;;;;16.27;13.05;;;12.50;99.90;;;;;;5053708;28;20171;-63
2022/11/13 02:33:16;;;;;;;16.43;13.70;;;12.40;99.90;;;;;;5052747;28;20388;-63
2022/11/13 02:36:02;;;;;;;17.50;13.82;;;12.40;99.90;;;;;;5054122;28;20056;-62
2022/11/13 02:38:47;;;;;;;16.48;13.98;;;12.40;99.90;;;;;;5054260;28;20381;-62
2022/11/13 02:41:32;;;;;;;19.20;14.47;;;12.30;99.90;;;;;;5053265;28;20052;-62
2022/11/13 02:44:17;;;;;;;17.08;13.63;;;12.20;99.90;;;;;;5053859;28;20059;-61
2022/11/13 02:47:02;;;;;;;18.63;14.45;;;12.20;99.90;;;;;;5047140;28;20048;-62
2022/11/13 02:49:47;;;;;;;17.00;13.60;;;12.20;99.90;;;;;;5034008;28;20136;-63
2022/11/13 02:52:32;;;;;;;14.87;12.33;;;12.10;99.90;;;;;;5035757;28;20345;-61
2022/11/13 02:55:18;;;;;;;18.17;14.20;;;12.00;99.90;;;;;;5033899;28;20149;-63
2022/11/13 02:58:03;;;;;;;17.98;14.15;;;12.00;99.90;;;;;;5033976;28;20107;-62
2022/11/13 03:00:48;;;;;;;16.27;13.23;;;11.90;99.90;;;;;;5033731;28;20057;-63
2022/11/13 03:03:33;;;;;;;17.17;13.07;;;11.90;99.90;;;;;;5050906;28;20064;-62
2022/11/13 03:06:38;;;;;;;15.38;12.68;;;11.80;99.90;;;;;;5053595;28;20044;-61
2022/11/13 03:09:24;;;;;;;19.20;13.73;;;11.70;99.90;;;;;;5053408;28;20550;-63
2022/11/13 03:12:09;;;;;;;19.30;14.48;;;11.70;99.90;;;;;;5053598;28;20068;-61
2022/11/13 03:14:54;;;;;;;18.77;14.17;;;11.70;99.90;;;;;;5053855;28;20557;-62
2022/11/13 03:17:39;;;;;;;17.13;14.17;;;11.60;99.90;;;;;;5057091;28;20293;-61
2022/11/13 03:20:24;;;;;;;19.63;13.77;;;11.60;99.90;;;;;;5057552;28;20184;-62
2022/11/13 03:23:09;;;;;;;17.35;13.55;;;11.60;99.90;;;;;;5056715;28;20146;-61
2022/11/13 03:25:54;;;;;;;16.97;13.23;;;11.60;99.90;;;;;;5056934;28;20099;-61
2022/11/13 03:28:39;;;;;;;22.50;13.95;;;11.50;99.90;;;;;;5057100;28;20308;-62
2022/11/13 03:31:25;;;;;;;18.15;13.88;;;11.60;99.90;;;;;;5055662;28;20387;-62
2022/11/13 03:34:10;;;;;;;16.42;13.00;;;11.60;99.90;;;;;;5056514;28;20212;-61
2022/11/13 03:36:55;;;;;;;17.83;13.50;;;11.60;99.90;;;;;;5050355;28;20052;-63
2022/11/13 03:39:40;;;;;;;16.97;11.97;;;11.60;99.90;;;;;;5040608;28;20389;-62
2022/11/13 03:42:25;;;;;;;16.00;12.20;;;11.70;99.90;;;;;;5036680;28;20052;-62
2022/11/13 03:45:10;;;;;;;20.88;13.02;;;11.80;99.90;;;;;;5036758;28;20301;-63
2022/11/13 03:47:55;;;;;;;18.90;13.13;;;11.80;99.90;;;;;;5037022;28;20048;-62
2022/11/13 03:50:40;;;;;;;19.35;13.30;;;11.80;99.90;;;;;;5037265;28;20253;-63
2022/11/13 03:53:29;;;;;;;17.08;12.30;;;11.90;99.90;;;;;;5036562;28;20572;-62
2022/11/13 03:56:14;;;;;;;16.13;12.50;;;11.90;99.90;;;;;;5036738;28;20500;-61
2022/11/13 03:59:00;;;;;;;17.08;11.82;;;11.90;99.90;;;;;;5036686;28;20051;-63
2022/11/13 04:01:45;;;;;;;16.70;12.77;;;12.00;99.90;;;;;;5043202;28;20055;-63
2022/11/13 04:04:31;;;;;;;21.98;13.57;;;12.00;99.90;;;;;;5040412;28;20053;-62
2022/11/13 04:07:16;;;;;;;13.98;11.40;;;12.00;99.90;;;;;;5035381;28;20119;-63
2022/11/13 04:10:01;;;;;;;17.17;12.90;;;12.10;99.90;;;;;;5036931;28;20052;-63
2022/11/13 04:12:46;;;;;;;17.83;12.40;;;12.10;99.90;;;;;;5036246;28;20045;-62
2022/11/13 04:15:31;;;;;;;17.77;13.15;;;12.10;99.90;;;;;;5036440;28;20056;-64
2022/11/13 04:18:17;;;;;;;19.87;13.37;;;12.10;99.90;;;;;;5038306;28;20111;-61
2022/11/13 04:21:02;;;;;;;17.70;12.98;;;12.10;99.90;;;;;;5036245;28;20397;-63
2022/11/13 04:23:47;;;;;;;15.83;12.30;;;12.10;99.90;;;;;;5036043;28;20060;-62
2022/11/13 04:26:32;;;;;;;17.17;12.25;;;12.20;99.90;;;;;;5034645;28;20052;-62
2022/11/13 04:29:17;;;;;;;18.20;13.45;;;12.20;99.90;;;;;;5037450;28;20381;-62
2022/11/13 04:32:03;;;;;;;17.27;11.98;;;12.20;99.90;;;;;;5044982;28;20122;-64
2022/11/13 04:34:48;;;;;;;17.08;13.50;;;12.20;99.90;;;;;;5056266;28;20091;-62
2022/11/13 04:37:33;;;;;;;18.33;12.23;;;12.20;99.90;;;;;;5055667;28;20052;-62
2022/11/13 04:40:18;;;;;;;18.23;13.00;;;12.20;99.90;;;;;;5055699;28;20444;-64
2022/11/13 04:43:03;;;;;;;15.97;12.83;;;12.20;99.90;;;;;;5055135;28;20044;-64
2022/11/13 04:45:48;;;;;;;14.90;12.40;;;12.20;99.90;;;;;;5055285;28;20047;-65
2022/11/13 04:48:33;;;;;;;15.40;11.93;;;12.20;99.90;;;;;;5055790;28;20052;-63
2022/11/13 04:51:18;;;;;;;18.83;12.57;;;12.20;99.90;;;;;;5055287;28;20795;-64
2022/11/13 04:54:03;;;;;;;16.60;12.27;;;12.20;99.90;;;;;;5055344;28;20063;-63
2022/11/13 04:56:49;;;;;;;16.30;12.73;;;12.20;99.90;;;;;;5055622;28;20265;-63
2022/11/13 04:59:34;;;;;;;15.13;11.98;;;12.20;99.90;;;;;;5035698;28;20126;-62
2022/11/13 05:02:19;;;;;;;15.03;12.37;;;12.20;99.90;;;;;;5047955;28;20056;-63
2022/11/13 05:05:04;;;;;;;16.88;12.55;;;12.20;99.90;;;;;;5055219;28;20056;-62
2022/11/13 05:07:49;;;;;;;17.55;12.18;;;12.20;99.90;;;;;;5038142;28;20057;-62
2022/11/13 05:10:34;;;;;;;18.65;13.38;;;12.20;99.90;;;;;;5035204;28;20053;-62
2022/11/13 05:13:19;;;;;;;15.98;12.90;;;12.20;99.90;;;;;;5035004;28;20052;-63
2022/11/13 05:16:05;;;;;;;18.02;12.05;;;12.20;99.90;;;;;;5036140;28;20060;-63
2022/11/13 05:18:50;;;;;;;17.13;12.15;;;12.20;99.90;;;;;;5035042;28;20056;-62
2022/11/13 05:21:35;;;;;;;16.23;12.10;;;12.20;99.90;;;;;;5035159;28;20059;-63
2022/11/13 05:24:20;;;;;;;18.52;12.57;;;12.20;99.90;;;;;;5035132;28;20736;-63
2022/11/13 05:27:05;;;;;;;14.77;11.67;;;12.20;99.90;;;;;;5034951;28;20131;-63
2022/11/13 05:29:50;;;;;;;14.33;12.00;;;12.20;99.90;;;;;;5034633;28;20273;-62
2022/11/13 05:32:35;;;;;;;17.35;12.98;;;12.20;99.90;;;;;;5038608;28;20290;-62
2022/11/13 05:35:20;;;;;;;16.00;12.43;;;12.20;99.90;;;;;;5033568;28;20401;-63
2022/11/13 05:38:05;;;;;;;16.08;12.65;;;12.20;99.90;;;;;;5053102;28;20048;-62
2022/11/13 05:40:50;;;;;;;18.33;12.93;;;12.20;99.90;;;;;;5051830;28;20044;-63
2022/11/13 05:43:35;;;;;;;14.95;12.20;;;12.20;99.90;;;;;;5035541;28;20064;-63
2022/11/13 05:46:20;;;;;;;15.53;10.90;;;12.20;99.90;;;;;;5036956;28;20044;-62
2022/11/13 05:49:05;;;;;;;14.80;11.73;;;12.20;99.90;;;;;;5047145;28;20071;-62
2022/11/13 05:51:50;;;;;;;15.77;11.40;;;12.10;99.90;;;;;;5055177;28;20139;-62
2022/11/13 05:54:35;;;;;;;14.98;11.27;;;12.10;99.90;;;;;;5053958;28;20511;-62
2022/11/13 05:57:21;;;;;;;15.80;11.40;;;12.10;99.90;;;;;;5043741;28;20051;-62
2022/11/13 06:00:06;;;;;;;15.07;9.98;;;12.10;99.90;;;;;;5034403;28;20541;-62
2022/11/13 06:02:52;;;;;;;12.48;10.20;;;12.10;99.90;;;;;;5037419;28;20480;-63
2022/11/13 06:05:37;;;;;;;15.75;11.10;;;12.10;99.90;;;;;;5034288;28;20388;-61
2022/11/13 06:08:22;;;;;;;14.30;10.90;;;12.10;99.90;;;;;;5035777;28;20052;-62
2022/11/13 06:11:07;;;;;;;14.00;10.07;;;12.10;99.90;;;;;;5033714;28;20046;-62
2022/11/13 06:13:52;;;;;;;15.60;11.45;;;12.10;99.90;;;;;;5033760;28;20052;-63
2022/11/13 06:16:37;;;;;;;23.75;11.38;;;12.10;99.90;;;;;;5046090;28;20072;-62
2022/11/13 06:19:22;;;;;;;19.97;9.80;;;12.10;99.90;;;;;;5036789;28;20116;-62
2022/11/13 06:22:07;;;;;;;16.63;11.02;;;12.10;99.90;;;;;;5039588;28;20362;-63
2022/11/13 06:24:52;;;;;;;17.63;10.60;;;12.00;99.90;;;;;;5054141;28;20111;-64
2022/11/13 06:27:37;;;;;;;18.02;9.88;;;12.00;99.90;;;;;;5047152;28;20148;-62
2022/11/13 06:30:22;;;;;;;14.32;10.27;;;12.00;99.90;;;;;;5034324;28;20092;-63
2022/11/13 06:33:07;;;;;;;16.90;10.07;;;12.00;99.90;;;;;;5038088;28;20103;-63
2022/11/13 06:35:52;;;;;;;13.07;8.90;;;12.00;99.90;;;;;;5048004;28;20630;-63
2022/11/13 06:38:37;;;;;;;15.85;8.70;;;11.90;99.90;;;;;;5053394;28;20110;-63
2022/11/13 06:41:23;;;;;;;11.50;8.73;;;12.00;99.90;;;;;;5051208;28;20098;-63
2022/11/13 06:44:08;;;;;;;9.32;8.30;;;11.90;99.90;;;;;;5033426;28;20068;-62
2022/11/13 06:46:54;;;;;;;13.02;8.85;;;11.90;99.90;;;;;;5033717;28;20156;-64
2022/11/13 06:49:39;;;;;;;8.87;7.27;;;11.90;99.90;;;;;;5036618;28;20116;-63
2022/11/13 06:52:24;;;;;;;14.98;8.32;;;11.90;99.90;;;;;;5037721;28;20265;-63
2022/11/13 06:55:10;;;;;;;16.42;7.40;;;11.90;99.90;;;;;;5037561;28;20055;-63
2022/11/13 06:57:55;;;;;;;10.43;7.90;;;11.80;99.90;;;;;;5056704;28;20186;-64
2022/11/13 07:00:40;;;;;;;12.20;7.20;;;11.80;99.90;;;;;;5045995;28;20051;-64
2022/11/13 07:03:25;;;;;;;10.02;6.88;;;11.80;99.90;;;;;;5044473;28;20068;-62
2022/11/13 07:06:13;;;;;;;9.40;7.03;;;11.80;99.90;;;;;;5037995;28;20052;-62
2022/11/13 07:08:58;;;;;;;10.10;7.35;;;11.80;99.90;;;;;;5056795;28;20052;-63
2022/11/13 07:11:43;;;;;;;15.73;7.30;;;11.90;99.90;;;;;;5038377;28;20055;-62
2022/11/13 07:14:28;;;;;;;9.23;6.90;;;11.80;99.90;;;;;;5046341;28;20796;-64
2022/11/13 07:17:13;;;;;;;9.20;6.93;;;11.80;99.90;;;;;;5056544;28;20796;-63
2022/11/13 07:19:59;;;;;;;8.52;6.10;;;11.80;99.90;;;;;;5038946;28;20266;-62
2022/11/13 07:22:44;;;;;;;13.07;6.07;;;11.70;99.90;;;;;;5050650;28;20076;-63
2022/11/13 07:25:30;;;;;;;9.45;6.05;;;11.70;99.90;;;;;;5057322;28;20392;-63
2022/11/13 07:28:15;;;;;;;7.53;6.18;;;11.60;99.90;;;;;;5053221;28;20561;-62
2022/11/13 07:31:00;;;;;;;11.13;6.80;;;11.70;99.90;;;;;;5055635;28;20175;-64
2022/11/13 07:33:45;;;;;;;13.20;6.88;;;11.70;99.90;;;;;;5055276;28;20115;-62
2022/11/13 07:36:30;;;;;;;10.27;6.18;;;11.70;99.90;;;;;;5056554;28;20059;-63
2022/11/13 07:39:15;;;;;;;7.90;6.25;;;11.70;99.90;;;;;;5046112;28;20392;-62
2022/11/13 07:42:00;;;;;;;8.82;6.53;;;11.70;99.90;;;;;;5041710;28;20056;-63
2022/11/13 07:44:46;;;;;;;10.40;6.80;;;11.70;99.90;;;;;;5039798;28;20115;-62
2022/11/13 07:47:38;;;;;;;10.80;6.47;;;11.70;99.90;;;;;;5040482;28;20103;-62
2022/11/13 07:50:24;;;;;;;8.52;6.78;;;11.60;99.90;;;;;;5057011;28;20151;-63
2022/11/13 07:53:09;;;;;;;8.60;6.00;;;11.60;99.90;;;;;;5045980;28;20052;-62
2022/11/13 07:55:54;;;;;;;10.65;6.45;;;11.60;99.90;;;;;;5037787;28;20095;-62
2022/11/13 07:58:39;;;;;;;7.70;5.82;;;11.60;99.90;;;;;;5036822;28;20448;-62
2022/11/13 08:01:24;;;;;;;6.60;5.78;;;11.60;99.90;;;;;;5055171;28;20562;-63
2022/11/13 08:04:10;;;;;;;8.70;5.90;;;11.60;99.90;;;;;;5052119;28;20503;-64
2022/11/13 08:06:55;;;;;;;11.95;6.47;;;11.70;99.90;;;;;;5036425;28;20056;-61
2022/11/13 08:09:40;;;;;;;10.17;6.07;;;11.70;99.90;;;;;;5037543;28;20052;-63
2022/11/13 08:12:26;;;;;;;6.72;6.03;;;11.70;99.90;;;;;;5038271;28;20053;-62
2022/11/13 08:15:11;;;;;;;12.35;6.30;;;11.70;99.90;;;;;;5050240;28;20103;-64
2022/11/13 08:17:57;;;;;;;8.13;6.63;;;11.70;99.90;;;;;;5037092;28;20048;-62
2022/11/13 08:20:43;;;;;;;7.57;6.55;;;11.70;99.90;;;;;;5056297;28;20420;-62
2022/11/13 08:23:28;;;;;;;10.80;6.72;;;11.80;99.90;;;;;;5036483;28;20064;-62
2022/11/13 08:26:13;;;;;;;11.32;6.50;;;11.80;99.90;;;;;;5039535;28;20052;-63
2022/11/13 08:28:58;;;;;;;12.43;6.80;;;11.80;99.90;;;;;;5036415;28;20143;-63
2022/11/13 08:31:43;;;;;;;10.23;6.53;;;11.80;99.90;;;;;;5039165;28;20056;-62
2022/11/13 08:34:28;;;;;;;6.63;5.93;;;11.80;99.90;;;;;;5037005;28;20180;-62
2022/11/13 08:37:13;;;;;;;8.15;6.57;;;11.80;99.90;;;;;;5048991;28;20429;-61
2022/11/13 08:39:58;;;;;;;12.02;6.82;;;11.80;99.90;;;;;;5046876;28;20049;-62
2022/11/13 08:42:43;;;;;;;8.10;7.17;;;11.80;99.90;;;;;;5045006;28;20068;-61
2022/11/13 08:45:28;;;;;;;10.32;6.82;;;11.80;99.90;;;;;;5045169;28;20668;-62
2022/11/13 08:48:13;;;;;;;11.63;6.23;;;11.80;99.90;;;;;;5047448;28;20044;-62
2022/11/13 08:50:58;;;;;;;9.90;6.47;;;11.80;99.90;;;;;;5046239;28;20048;-62
2022/11/13 08:53:43;;;;;;;9.38;7.07;;;11.80;99.90;;;;;;5038611;28;20286;-61
2022/11/13 08:56:28;;;;;;;12.37;6.67;;;11.80;99.90;;;;;;5035916;28;20404;-62
2022/11/13 08:59:13;;;;;;;8.65;6.30;;;11.90;99.90;;;;;;5037310;28;20415;-63
2022/11/13 09:01:58;;;;;;;8.33;6.80;;;11.90;99.90;;;;;;5046101;28;20048;-63
2022/11/13 09:04:44;;;;;;;7.57;6.57;;;11.90;99.90;;;;;;5047049;28;20392;-62
2022/11/13 09:07:29;;;;;;;7.78;6.88;;;11.90;99.90;;;;;;5040621;28;20460;-63
2022/11/13 09:10:14;;;;;;;7.25;6.45;;;11.90;99.90;;;;;;5044296;28;20052;-63
2022/11/13 09:13:00;;;;;;;7.63;6.38;;;11.90;99.90;;;;;;5046316;28;20065;-63
2022/11/13 09:15:46;;;;;;;9.75;6.13;;;11.90;99.90;;;;;;5047997;28;20103;-62
2022/11/13 09:18:31;;;;;;;7.75;6.72;;;11.90;99.90;;;;;;5047908;28;20506;-62
2022/11/13 09:21:16;;;;;;;7.40;6.32;;;12.00;99.90;;;;;;5043021;28;20399;-62
2022/11/13 09:24:02;;;;;;;7.25;6.13;;;12.00;99.90;;;;;;5048509;28;20056;-62
2022/11/13 09:26:47;;;;;;;6.83;6.13;;;12.00;99.90;;;;;;5043922;28;20052;-62
2022/11/13 09:29:32;;;;;;;7.03;6.20;;;12.00;99.90;;;;;;5045362;28;20047;-62
2022/11/13 09:32:18;;;;;;;;;;;12.10;99.90;;;;;;5046436;28;20056;-62
2022/11/13 09:35:03;;;;;;;6.78;5.60;;;12.10;99.90;;;;;;5038184;28;19971;-62
2022/11/13 09:37:48;;;;;;;7.10;5.87;;;12.10;99.90;;;;;;5034587;28;20087;-63
2022/11/13 09:40:33;;;;;;;7.43;5.72;;;12.10;99.90;;;;;;5038288;28;20150;-61
2022/11/13 09:43:18;;;;;;;7.20;5.90;;;12.20;99.90;;;;;;5042038;28;20056;-63
2022/11/13 09:46:03;;;;;;;6.65;5.95;;;12.30;99.90;;;;;;5038547;28;20044;-63
2022/11/13 09:48:48;;;;;;;7.07;6.38;;;12.30;99.90;;;;;;5042834;28;20511;-63
2022/11/13 09:51:36;;;;;;;7.60;5.65;;;12.30;99.90;;;;;;5051974;28;20075;-63
2022/11/13 09:54:21;;;;;;;6.50;5.88;;;12.40;99.90;;;;;;5038205;28;20056;-62
2022/11/13 09:57:06;;;;;;;8.43;5.65;;;12.40;99.90;;;;;;5043190;28;20048;-62
2022/11/13 09:59:51;;;;;;;7.05;5.60;;;12.50;99.90;;;;;;5045935;28;20134;-63
2022/11/13 10:02:36;;;;;;;6.68;5.60;;;12.50;99.90;;;;;;5048662;28;20056;-63
2022/11/13 10:05:21;;;;;;;10.30;5.28;;;12.50;99.90;;;;;;5041289;28;20123;-64
2022/11/13 10:08:06;;;;;;;6.22;5.28;;;12.50;99.90;;;;;;5046369;28;20044;-63
2022/11/13 10:10:52;;;;;;;5.85;5.22;;;12.60;99.90;;;;;;5051871;28;20538;-63
2022/11/13 10:13:40;;;;;;;5.88;5.28;;;12.60;99.90;;;;;;5044224;28;20051;-63
2022/11/13 10:16:25;;;;;;;6.23;4.83;;;12.60;99.90;;;;;;5046987;28;20059;-64
2022/11/13 10:19:10;;;;;;;6.15;5.22;;;12.60;99.90;;;;;;5041123;28;20872;-62
2022/11/13 10:21:57;;;;;;;6.28;5.07;;;12.70;99.90;;;;;;5041352;28;20122;-63
2022/11/13 10:25:03;;;;;;;8.30;5.15;;;12.70;99.90;;;;;;5042713;28;20545;-64
2022/11/13 10:27:48;;;;;;;5.97;5.38;;;12.80;99.90;;;;;;5041597;28;20050;-65
2022/11/13 10:30:33;;;;;;;;;;;12.90;99.90;;;;;;5043737;28;20064;-61
2022/11/13 10:33:18;;;;;;;5.80;5.05;;;12.90;99.90;;;;;;5043244;28;20010;-62
2022/11/13 10:36:04;;;;;;;6.53;5.65;;;12.90;99.90;;;;;;5039936;28;20151;-62
2022/11/13 10:38:49;;;;;;;9.18;5.78;;;12.90;99.90;;;;;;5043818;28;20068;-63
2022/11/13 10:41:34;;;;;;;7.07;5.63;;;12.80;99.90;;;;;;5043261;28;20115;-63
2022/11/13 10:44:19;;;;;;;6.45;5.43;;;12.90;99.90;;;;;;5040458;28;20056;-63
2022/11/13 10:47:05;;;;;;;7.07;5.40;;;12.90;99.90;;;;;;5042649;28;20491;-64
2022/11/13 10:49:50;;;;;;;8.60;5.45;;;12.90;99.90;;;;;;5041004;28;20040;-64
2022/11/13 10:52:35;;;;;;;6.67;5.97;;;12.90;99.90;;;;;;5039638;28;20136;-62
2022/11/13 10:55:21;;;;;;;6.47;5.55;;;13.00;99.90;;;;;;5045817;28;20052;-61
2022/11/13 10:58:06;;;;;;;6.45;5.22;;;13.10;99.90;;;;;;5041996;28;20056;-62
2022/11/13 11:00:51;;;;;;;7.32;6.40;;;13.10;99.90;;;;;;5041323;28;20045;-63
2022/11/13 11:03:37;;;;;;;7.30;6.45;;;13.20;99.90;;;;;;5044149;28;20126;-64
2022/11/13 11:06:23;;;;;;;8.07;6.17;;;13.20;99.90;;;;;;5039269;28;20056;-61
2022/11/13 11:09:29;;;;;;;7.07;5.97;;;13.20;99.90;;;;;;5034107;28;20277;-63
2022/11/13 11:12:14;;;;;;;7.45;5.90;;;13.30;99.90;;;;;;5031108;28;20392;-63
2022/11/13 11:15:00;;;;;;;8.13;6.25;;;13.30;99.90;;;;;;5045323;28;20122;-62
2022/11/13 11:17:45;;;;;;;7.40;6.70;;;13.30;99.90;;;;;;5036885;28;20056;-63
2022/11/13 11:20:30;;;;;;;7.78;6.30;;;13.40;99.90;;;;;;5033593;28;20111;-62
2022/11/13 11:23:15;;;;;;;7.82;6.63;;;13.40;99.90;;;;;;5046243;28;20111;-63
2022/11/13 11:26:01;;;;;;;9.15;7.05;;;13.50;99.90;;;;;;5044285;28;20060;-62
2022/11/13 11:28:46;;;;;;;9.48;7.80;;;13.50;99.90;;;;;;5051789;28;20048;-63
2022/11/13 11:31:31;;;;;;;9.18;7.85;;;13.40;99.90;;;;;;5045161;28;20495;-63
2022/11/13 11:34:16;;;;;;;8.77;7.60;;;13.40;99.90;;;;;;5034254;28;20128;-62
2022/11/13 11:37:01;;;;;;;10.20;7.80;;;13.30;99.90;;;;;;5034426;28;20529;-62
2022/11/13 11:39:46;;;;;;;9.38;7.40;;;13.40;99.90;;;;;;5051934;28;20055;-62
2022/11/13 11:42:31;;;;;;;8.88;7.88;;;13.30;99.90;;;;;;5046056;28;20056;-63
2022/11/13 11:45:16;;;;;;;8.27;6.93;;;13.30;99.90;;;;;;5039070;28;20052;-63
2022/11/13 11:48:03;;;;;;;8.95;7.35;;;13.30;99.90;;;;;;5039112;28;20065;-63
2022/11/13 11:50:48;;;;;;;11.93;7.97;;;13.30;99.90;;;;;;5035317;28;20064;-62
2022/11/13 11:53:34;;;;;;;;;;;13.30;99.90;;;;;;5036226;28;20107;-64
2022/11/13 11:56:19;;;;;;;10.57;8.55;;;13.30;99.90;;;;;;5036378;28;19975;-64
2022/11/13 11:59:05;;;;;;;9.85;8.63;;;13.40;99.90;;;;;;5036528;28;20064;-64
2022/11/13 12:01:50;;;;;;;9.73;8.73;;;13.40;99.90;;;;;;5036544;28;20060;-65
2022/11/13 12:04:35;;;;;;;12.65;9.25;;;13.40;99.90;;;;;;5036231;28;20154;-63
2022/11/13 12:07:21;;;;;;;10.82;9.43;;;13.40;99.90;;;;;;5033975;28;20099;-64
2022/11/13 12:10:06;;;;;;;11.95;9.63;;;13.40;99.90;;;;;;5034909;28;20100;-64
2022/11/13 12:12:52;;;;;;;11.38;10.18;;;13.40;99.90;;;;;;5034746;28;20165;-64
2022/11/13 12:15:38;;;;;;;12.45;10.90;;;13.50;99.90;;;;;;5034629;28;20052;-64
2022/11/13 12:18:23;;;;;;;12.55;11.25;;;13.50;99.90;;;;;;5034784;28;20416;-65
2022/11/13 12:21:08;;;;;;;16.35;12.00;;;13.50;99.90;;;;;;5034898;28;20526;-65
2022/11/13 12:23:54;;;;;;;12.45;11.15;;;13.50;99.90;;;;;;5036064;28;20056;-63
2022/11/13 12:26:39;;;;;;;14.18;11.68;;;13.60;99.90;;;;;;5035753;28;20044;-64
2022/11/13 12:29:24;;;;;;;13.90;11.88;;;13.60;99.90;;;;;;5035905;28;20064;-64
2022/11/13 12:32:09;;;;;;;14.95;12.45;;;13.70;99.90;;;;;;5034849;28;20137;-64
2022/11/13 12:34:54;;;;;;;12.73;11.43;;;13.70;99.90;;;;;;5036305;28;20053;-64
2022/11/13 12:37:40;;;;;;;13.27;11.57;;;13.70;99.90;;;;;;5035580;28;20052;-64
2022/11/13 12:40:25;;;;;;;13.10;11.55;;;13.80;99.90;;;;;;5036263;28;20103;-64
2022/11/13 12:43:10;;;;;;;15.82;12.77;;;13.80;99.90;;;;;;5036549;28;20164;-64
2022/11/13 12:45:56;;;;;;;15.75;13.02;;;13.90;99.90;;;;;;5036264;28;20059;-64
2022/11/13 12:48:41;;;;;;;16.10;12.48;;;13.90;99.90;;;;;;5034772;28;20095;-63
2022/11/13 12:51:26;;;;;;;16.35;12.90;;;13.90;99.90;;;;;;5035919;28;20498;-63
2022/11/13 12:54:11;;;;;;;15.45;13.85;;;13.90;99.90;;;;;;5035424;28;20515;-64
2022/11/13 12:56:56;;;;;;;15.68;13.93;;;13.90;99.90;;;;;;5036101;28;20057;-64
2022/11/13 12:59:42;;;;;;;16.55;13.27;;;14.00;99.90;;;;;;5036285;28;20059;-64
2022/11/13 13:02:27;;;;;;;15.18;13.57;;;14.00;99.90;;;;;;5035693;28;20082;-64
2022/11/13 13:05:12;;;;;;;16.13;13.02;;;14.00;99.90;;;;;;5035401;28;20053;-64
2022/11/13 13:07:58;;;;;;;15.45;13.05;;;14.00;99.90;;;;;;5034935;28;20064;-65
2022/11/13 13:10:48;;;;;;;16.27;13.55;;;14.10;99.90;;;;;;5035646;28;20053;-65
2022/11/13 13:13:34;;;;;;;17.27;13.38;;;14.00;99.90;;;;;;5035710;28;20054;-63
2022/11/13 13:16:19;;;;;;;18.25;14.95;;;14.00;99.90;;;;;;5035390;28;20068;-65
2022/11/13 13:19:04;;;;;;;18.75;13.75;;;14.00;99.90;;;;;;5035311;28;20107;-63
2022/11/13 13:21:49;;;;;;;15.98;14.38;;;14.10;99.90;;;;;;5034126;28;20055;-64
2022/11/13 13:24:34;;;;;;;16.83;14.13;;;14.10;99.90;;;;;;5035404;28;20060;-64
2022/11/13 13:27:19;;;;;;;15.57;13.82;;;14.20;99.90;;;;;;5035087;28;20131;-65
2022/11/13 13:30:04;;;;;;;18.05;14.00;;;14.20;99.90;;;;;;5034925;28;20047;-63
2022/11/13 13:32:49;;;;;;;15.70;14.02;;;14.30;99.90;;;;;;5035249;28;20059;-63
2022/11/13 13:35:34;;;;;;;16.02;14.32;;;14.40;99.90;;;;;;5035029;28;20053;-64
2022/11/13 13:38:20;;;;;;;17.40;14.93;;;14.40;99.90;;;;;;5034989;28;20063;-64
2022/11/13 13:41:05;;;;;;;16.77;14.03;;;14.40;99.90;;;;;;5034792;28;20064;-64
2022/11/13 13:43:50;;;;;;;17.25;15.40;;;14.50;99.90;;;;;;5034870;28;20262;-64
2022/11/13 13:46:35;;;;;;;15.45;13.68;;;14.50;99.90;;;;;;5034102;28;20049;-64
2022/11/13 13:49:21;;;;;;;15.60;13.82;;;14.50;99.90;;;;;;5034506;28;20401;-65
2022/11/13 13:52:06;;;;;;;17.13;14.13;;;14.50;99.90;;;;;;5034151;28;20052;-65
2022/11/13 13:54:51;;;;;;;16.48;14.68;;;14.50;99.90;;;;;;5034284;28;20052;-64
2022/11/13 13:57:37;;;;;;;16.15;14.45;;;14.40;99.90;;;;;;5034560;28;20448;-63
2022/11/13 14:00:22;;;;;;;15.93;13.43;;;14.30;99.90;;;;;;5034348;28;20051;-63
2022/11/13 14:03:07;;;;;;;17.10;14.02;;;14.30;99.90;;;;;;5034144;28;20048;-64
2022/11/13 14:05:52;;;;;;;17.52;14.70;;;14.30;99.90;;;;;;5034560;28;20134;-63
2022/11/13 14:08:43;;;;;;;16.58;14.50;;;14.30;99.90;;;;;;5034244;28;20052;-63